Time;durP1;ratioP1;P1;durP2;ratioP2;P2;SDS_P1;SDS_P2;PMS_P1;PMS_P2;Temp;Humidity;BMP_temperature;BMP_pressure;BME280_temperature;BME280_humidity;BME280_pressure;Samples;Min_cycle;Max_cycle;Signal;HPM_P1;HPM_P2
2022/09/24 00:01:18;;;;;;;;;;;;;;;;;;5046092;28;43212;-75
2022/09/24 00:03:44;;;;;;;;;;;;;;;;;;5066420;28;45633;-75
2022/09/24 00:06:13;;;;;;;;;;;;;;;;;;5052352;28;46304;-75
2022/09/24 00:08:39;;;;;;;;;;;;;;;;;;5030021;28;44678;-75
2022/09/24 00:11:05;;;;;;;;;;;;;;;;;;5063854;28;45830;-75
2022/09/24 00:13:31;;;;;;;;;;;;;;;;;;5064275;28;46112;-75
2022/09/24 00:15:57;;;;;;;;;;;;;;;;;;5066389;28;47732;-75
2022/09/24 00:18:24;;;;;;;;;;;;;;;;;;5047782;28;46083;-76
2022/09/24 00:20:50;;;;;;;;;;;;;;;;;;5065910;28;46118;-75
2022/09/24 00:23:17;;;;;;;;;;;;;;;;;;5043873;28;47347;-75
2022/09/24 00:28:28;;;;;;;;;;;;;;;;;;5055813;28;43728;-75
2022/09/24 00:30:58;;;;;;;;;;;;;;;;;;5047188;28;48029;-75
2022/09/24 00:33:24;;;;;;;;;;;;;;;;;;5066179;28;42594;-75
2022/09/24 00:35:51;;;;;;;;;;;;;;;;;;5047670;28;46458;-76
2022/09/24 00:38:18;;;;;;;;;;;;;;;;;;5048707;28;45570;-76
2022/09/24 00:40:44;;;;;;;;;;;;;;;;;;5045501;28;46300;-75
2022/09/24 00:43:10;;;;;;;;;;;;;;;;;;5065497;28;47874;-75
2022/09/24 00:45:37;;;;;;;;;;;;;;;;;;5062198;28;47568;-76
2022/09/24 00:48:03;;;;;;;;;;;;;;;;;;5065735;28;46048;-75
2022/09/24 00:50:30;;;;;;;;;;;;;;;;;;5063082;28;46763;-75
2022/09/24 00:52:56;;;;;;;;;;;;;;;;;;5048069;28;45021;-75
2022/09/24 00:55:23;;;;;;;;;;;;;;;;;;5066275;28;45683;-75
2022/09/24 00:57:49;;;;;;;;;;;;;;;;;;5047001;28;48373;-75
2022/09/24 01:00:15;;;;;;;;;;;;;;;;;;5064621;28;46134;-75
2022/09/24 01:02:42;;;;;;;;;;;;;;;;;;5042538;28;47848;-75
2022/09/24 01:05:09;;;;;;;;;;;;;;;;;;5048001;28;47989;-75
2022/09/24 01:07:35;;;;;;;;;;;;;;;;;;5066342;28;44827;-75
2022/09/24 01:10:01;;;;;;;;;;;;;;;;;;5064518;28;45704;-75
2022/09/24 01:12:27;;;;;;;;;;;;;;;;;;5064535;28;47291;-75
2022/09/24 01:14:54;;;;;;;;;;;;;;;;;;5044607;28;45845;-75
2022/09/24 01:17:20;;;;;;;;;;;;;;;;;;5064265;28;47320;-75
2022/09/24 01:19:49;;;;;;;;;;;;;;;;;;5064365;28;45384;-75
2022/09/24 01:22:15;;;;;;;;;;;;;;;;;;5046310;28;47944;-75
2022/09/24 01:24:41;;;;;;;;;;;;;;;;;;5065106;28;47309;-75
2022/09/24 01:27:07;;;;;;;;;;;;;;;;;;5045849;28;45365;-75
2022/09/24 01:29:33;;;;;;;;;;;;;;;;;;5063669;28;47893;-75
2022/09/24 01:32:00;;;;;;;;;;;;;;;;;;5041461;28;47178;-75
2022/09/24 01:34:27;;;;;;;;;;;;;;;;;;5044709;28;45978;-75
2022/09/24 01:36:53;;;;;;;;;;;;;;;;;;5045324;28;47208;-75
2022/09/24 01:39:19;;;;;;;;;;;;;;;;;;5042596;28;46132;-75
2022/09/24 01:41:46;;;;;;;;;;;;;;;;;;5064674;28;46417;-75
2022/09/24 01:44:12;;;;;;;;;;;;;;;;;;5042769;28;47300;-75
2022/09/24 01:46:38;;;;;;;;;;;;;;;;;;5042290;28;44503;-75
2022/09/24 01:49:06;;;;;;;;;;;;;;;;;;5053434;28;48356;-75
2022/09/24 01:51:32;;;;;;;;;;;;;;;;;;5069392;28;47169;-75
2022/09/24 01:53:59;;;;;;;;;;;;;;;;;;5062497;28;46018;-75
2022/09/24 01:56:25;;;;;;;;;;;;;;;;;;5044460;28;45788;-75
2022/09/24 01:58:51;;;;;;;;;;;;;;;;;;5047419;28;44900;-75
2022/09/24 02:01:17;;;;;;;;;;;;;;;;;;5061092;28;46808;-75
2022/09/24 02:03:44;;;;;;;;;;;;;;;;;;5060350;28;48391;-76
2022/09/24 02:06:12;;;;;;;;;;;;;;;;;;5045346;28;46035;-75
2022/09/24 02:08:38;;;;;;;;;;;;;;;;;;5046054;28;47792;-75
2022/09/24 02:11:05;;;;;;;;;;;;;;;;;;5045905;28;48402;-75
2022/09/24 02:13:31;;;;;;;;;;;;;;;;;;5045707;28;45542;-76
2022/09/24 02:15:57;;;;;;;;;;;;;;;;;;5045725;28;47934;-75
2022/09/24 02:18:23;;;;;;;;;;;;;;;;;;5067595;28;47160;-76
2022/09/24 02:20:50;;;;;;;;;;;;;;;;;;5064893;28;46742;-75
2022/09/24 02:23:17;;;;;;;;;;;;;;;;;;5061710;28;46907;-76
2022/09/24 02:25:45;;;;;;;;;;;;;;;;;;5067653;28;43791;-75
2022/09/24 02:28:11;;;;;;;;;;;;;;;;;;5050074;28;44404;-75
2022/09/24 02:30:37;;;;;;;;;;;;;;;;;;5033890;28;48284;-76
2022/09/24 02:34:19;;;;;;;;;;;;;;;;;;5038920;28;44542;-75
2022/09/24 02:35:52;;;;;;;;;;;;;;;;;;5060564;28;45570;-76
2022/09/24 02:38:18;;;;;;;;;;;;;;;;;;5057097;28;48119;-76
2022/09/24 02:40:44;;;;;;;;;;;;;;;;;;5031364;28;43994;-76
2022/09/24 02:43:11;;;;;;;;;;;;;;;;;;5048662;28;49909;-75
2022/09/24 02:45:37;;;;;;;;;;;;;;;;;;5066849;28;45264;-75
2022/09/24 02:48:03;;;;;;;;;;;;;;;;;;5037333;28;47876;-75
2022/09/24 02:50:30;;;;;;;;;;;;;;;;;;5048583;28;45503;-76
2022/09/24 02:52:56;;;;;;;;;;;;;;;;;;5065466;28;42488;-75
2022/09/24 02:55:23;;;;;;;;;;;;;;;;;;5046309;28;46904;-75
2022/09/24 02:57:49;;;;;;;;;;;;;;;;;;5049210;28;47827;-75
2022/09/24 03:00:16;;;;;;;;;;;;;;;;;;5065316;28;44029;-75
2022/09/24 03:02:42;;;;;;;;;;;;;;;;;;5066099;28;48435;-75
2022/09/24 03:05:09;;;;;;;;;;;;;;;;;;5049664;28;45765;-75
2022/09/24 03:07:38;;;;;;;;;;;;;;;;;;5047268;28;47666;-76
2022/09/24 03:10:04;;;;;;;;;;;;;;;;;;5063340;28;47594;-75
2022/09/24 03:12:31;;;;;;;;;;;;;;;;;;5046886;28;44466;-76
2022/09/24 03:14:57;;;;;;;;;;;;;;;;;;5049768;28;46664;-75
2022/09/24 03:17:23;;;;;;;;;;;;;;;;;;5066996;28;48307;-75
2022/09/24 03:19:50;;;;;;;;;;;;;;;;;;5050095;28;45012;-75
2022/09/24 03:22:18;;;;;;;;;;;;;;;;;;5065647;28;47993;-75
2022/09/24 03:24:44;;;;;;;;;;;;;;;;;;5046358;28;46647;-75
2022/09/24 03:27:11;;;;;;;;;;;;;;;;;;5049245;28;47887;-75
2022/09/24 03:32:22;;;;;;;;;;;;;;;;;;5061044;28;45276;-76
2022/09/24 03:34:48;;;;;;;;;;;;;;;;;;5046334;28;49036;-76
2022/09/24 03:37:14;;;;;;;;;;;;;;;;;;5048853;28;46139;-76
2022/09/24 03:39:40;;;;;;;;;;;;;;;;;;5067277;28;45029;-76
2022/09/24 03:42:07;;;;;;;;;;;;;;;;;;5066106;28;46279;-76
2022/09/24 03:44:33;;;;;;;;;;;;;;;;;;5048675;28;48132;-76
2022/09/24 03:47:00;;;;;;;;;;;;;;;;;;5049119;28;47334;-76
2022/09/24 03:49:26;;;;;;;;;;;;;;;;;;5062889;28;48103;-76
2022/09/24 03:51:52;;;;;;;;;;;;;;;;;;5047906;28;45902;-76
2022/09/24 03:54:18;;;;;;;;;;;;;;;;;;5047489;28;46787;-76
2022/09/24 03:56:45;;;;;;;;;;;;;;;;;;5065490;28;48477;-77
2022/09/24 03:59:11;;;;;;;;;;;;;;;;;;5048710;28;41903;-76
2022/09/24 04:01:37;;;;;;;;;;;;;;;;;;5045717;28;47772;-76
2022/09/24 04:04:03;;;;;;;;;;;;;;;;;;5045777;28;47232;-76
2022/09/24 04:06:30;;;;;;;;;;;;;;;;;;5048771;28;45051;-76
2022/09/24 04:08:56;;;;;;;;;;;;;;;;;;5066471;28;47518;-76
2022/09/24 04:11:22;;;;;;;;;;;;;;;;;;5065240;28;44696;-76
2022/09/24 04:13:49;;;;;;;;;;;;;;;;;;5046446;28;47505;-76
2022/09/24 04:16:15;;;;;;;;;;;;;;;;;;5048185;28;48384;-76
2022/09/24 04:18:41;;;;;;;;;;;;;;;;;;5062423;28;45078;-77
2022/09/24 04:21:07;;;;;;;;;;;;;;;;;;5045487;28;47862;-76
2022/09/24 04:23:34;;;;;;;;;;;;;;;;;;5065661;28;47418;-76
2022/09/24 04:26:01;;;;;;;;;;;;;;;;;;5047138;28;45589;-76
2022/09/24 04:28:27;;;;;;;;;;;;;;;;;;5065210;28;46257;-76
2022/09/24 04:30:53;;;;;;;;;;;;;;;;;;5057263;28;43584;-78
2022/09/24 04:33:19;;;;;;;;;;;;;;;;;;5044444;28;47412;-78
2022/09/24 04:35:45;;;;;;;;;;;;;;;;;;5028476;28;47325;-76
2022/09/24 04:38:12;;;;;;;;;;;;;;;;;;5026882;28;44946;-76
2022/09/24 04:40:38;;;;;;;;;;;;;;;;;;5045531;28;48082;-76
2022/09/24 04:43:05;;;;;;;;;;;;;;;;;;5061730;28;47029;-76
2022/09/24 04:45:31;;;;;;;;;;;;;;;;;;5046457;28;46031;-75
2022/09/24 04:47:57;;;;;;;;;;;;;;;;;;5046738;28;43857;-75
2022/09/24 04:50:23;;;;;;;;;;;;;;;;;;5046142;28;34596;-75
2022/09/24 04:52:50;;;;;;;;;;;;;;;;;;5045333;28;47804;-75
2022/09/24 04:55:22;;;;;;;;;;;;;;;;;;5053157;28;48055;-75
2022/09/24 04:57:49;;;;;;;;;;;;;;;;;;5067867;28;46565;-75
2022/09/24 05:00:16;;;;;;;;;;;;;;;;;;5044321;28;46650;-75
2022/09/24 05:02:42;;;;;;;;;;;;;;;;;;5045421;28;46880;-75
2022/09/24 05:05:08;;;;;;;;;;;;;;;;;;5048066;28;45031;-75
2022/09/24 05:07:35;;;;;;;;;;;;;;;;;;5065535;28;45509;-75
2022/09/24 05:10:01;;;;;;;;;;;;;;;;;;5066154;28;46241;-75
2022/09/24 05:12:27;;;;;;;;;;;;;;;;;;5041783;28;47849;-75
2022/09/24 05:14:53;;;;;;;;;;;;;;;;;;5065599;28;48323;-75
2022/09/24 05:17:20;;;;;;;;;;;;;;;;;;5064410;28;45030;-76
2022/09/24 05:19:46;;;;;;;;;;;;;;;;;;5064817;28;46795;-75
2022/09/24 05:22:13;;;;;;;;;;;;;;;;;;5063153;28;48325;-75
2022/09/24 05:24:39;;;;;;;;;;;;;;;;;;5047742;28;46214;-75
2022/09/24 05:27:08;;;;;;;;;;;;;;;;;;5062144;28;45681;-76
2022/09/24 05:29:35;;;;;;;;;;;;;;;;;;5048428;28;44983;-75
2022/09/24 05:32:02;;;;;;;;;;;;;;;;;;5052216;28;45014;-76
2022/09/24 05:34:29;;;;;;;;;;;;;;;;;;5046780;28;45932;-76
2022/09/24 05:36:56;;;;;;;;;;;;;;;;;;5060954;28;46457;-76
2022/09/24 05:39:22;;;;;;;;;;;;;;;;;;5065448;28;45663;-76
2022/09/24 05:41:48;;;;;;;;;;;;;;;;;;5062727;28;48429;-76
2022/09/24 05:44:14;;;;;;;;;;;;;;;;;;5065633;28;45050;-76
2022/09/24 05:46:40;;;;;;;;;;;;;;;;;;5056902;28;47917;-75
2022/09/24 05:49:07;;;;;;;;;;;;;;;;;;5059001;28;47910;-75
2022/09/24 05:51:33;;;;;;;;;;;;;;;;;;5046002;28;44299;-75
2022/09/24 05:53:59;;;;;;;;;;;;;;;;;;5069137;28;46786;-75
2022/09/24 05:56:25;;;;;;;;;;;;;;;;;;5068536;28;45958;-76
2022/09/24 05:58:52;;;;;;;;;;;;;;;;;;5068804;28;46756;-76
2022/09/24 06:01:18;;;;;;;;;;;;;;;;;;5066163;28;46945;-77
2022/09/24 06:03:44;;;;;;;;;;;;;;;;;;5046338;28;45221;-76
2022/09/24 06:06:10;;;;;;;;;;;;;;;;;;5069794;28;45724;-77
2022/09/24 06:08:37;;;;;;;;;;;;;;;;;;5048547;28;50032;-76
2022/09/24 06:11:04;;;;;;;;;;;;;;;;;;5033778;28;45279;-76
2022/09/24 06:13:31;;;;;;;;;;;;;;;;;;5048966;28;46921;-76
2022/09/24 06:15:57;;;;;;;;;;;;;;;;;;5069095;28;48319;-76
2022/09/24 06:18:23;;;;;;;;;;;;;;;;;;5064324;28;44541;-76
2022/09/24 06:20:49;;;;;;;;;;;;;;;;;;5058125;28;48346;-76
2022/09/24 06:23:15;;;;;;;;;;;;;;;;;;5048798;28;44806;-76
2022/09/24 06:25:42;;;;;;;;;;;;;;;;;;5047305;28;47886;-76
2022/09/24 06:28:09;;;;;;;;;;;;;;;;;;5044221;28;49011;-76
2022/09/24 06:30:37;;;;;;;;;;;;;;;;;;5063250;28;45088;-76
2022/09/24 06:33:04;;;;;;;;;;;;;;;;;;5044596;28;47709;-76
2022/09/24 06:35:30;;;;;;;;;;;;;;;;;;5041387;28;44467;-76
2022/09/24 06:37:56;;;;;;;;;;;;;;;;;;5041612;28;45850;-76
2022/09/24 06:40:24;;;;;;;;;;;;;;;;;;5058833;28;48623;-76
2022/09/24 06:42:51;;;;;;;;;;;;;;;;;;5047161;28;44643;-76
2022/09/24 06:45:17;;;;;;;;;;;;;;;;;;5064957;28;47619;-76
2022/09/24 06:47:44;;;;;;;;;;;;;;;;;;5062017;28;48312;-76
2022/09/24 06:50:11;;;;;;;;;;;;;;;;;;5056094;28;44958;-76
2022/09/24 06:52:37;;;;;;;;;;;;;;;;;;5058648;28;47559;-76
2022/09/24 06:55:03;;;;;;;;;;;;;;;;;;5066995;28;46042;-76
2022/09/24 06:57:30;;;;;;;;;;;;;;;;;;5068899;28;44704;-76
2022/09/24 06:59:56;;;;;;;;;;;;;;;;;;5049101;28;46062;-76
2022/09/24 07:02:22;;;;;;;;;;;;;;;;;;5063814;28;44523;-76
2022/09/24 07:04:48;;;;;;;;;;;;;;;;;;5049152;28;47934;-76
2022/09/24 07:07:33;;;;;;;;;;;;;;;;;;5049760;28;48341;-76
2022/09/24 07:10:03;;;;;;;;;;;;;;;;;;5062145;28;42674;-76
2022/09/24 07:12:29;;;;;;;;;;;;;;;;;;5047581;28;46527;-76
2022/09/24 07:14:55;;;;;;;;;;;;;;;;;;5048201;28;47999;-77
2022/09/24 07:17:22;;;;;;;;;;;;;;;;;;5056404;28;44747;-77
2022/09/24 07:19:48;;;;;;;;;;;;;;;;;;5046886;28;44673;-76
2022/09/24 07:22:14;;;;;;;;;;;;;;;;;;5061867;28;45718;-76
2022/09/24 07:24:41;;;;;;;;;;;;;;;;;;5072740;28;44899;-76
2022/09/24 07:27:07;;;;;;;;;;;;;;;;;;5066239;28;48332;-76
2022/09/24 07:29:33;;;;;;;;;;;;;;;;;;5067485;28;44681;-76
2022/09/24 07:32:00;;;;;;;;;;;;;;;;;;5065530;28;47611;-76
2022/09/24 07:34:26;;;;;;;;;;;;;;;;;;5063791;28;46363;-76
2022/09/24 07:36:53;;;;;;;;;;;;;;;;;;5041190;28;44845;-77
2022/09/24 07:39:19;;;;;;;;;;;;;;;;;;5049102;28;47945;-76
2022/09/24 07:41:45;;;;;;;;;;;;;;;;;;5063115;28;46701;-76
2022/09/24 07:44:12;;;;;;;;;;;;;;;;;;5062090;28;46128;-75
2022/09/24 07:46:38;;;;;;;;;;;;;;;;;;5048059;28;48321;-76
2022/09/24 07:49:04;;;;;;;;;;;;;;;;;;5030736;28;44990;-75
2022/09/24 07:51:31;;;;;;;;;;;;;;;;;;5046770;28;47529;-76
2022/09/24 07:53:57;;;;;;;;;;;;;;;;;;5067098;28;48320;-75
2022/09/24 07:56:23;;;;;;;;;;;;;;;;;;5062793;28;44699;-75
2022/09/24 07:58:49;;;;;;;;;;;;;;;;;;5084751;28;47581;-75
2022/09/24 08:01:17;;;;;;;;;;;;;;;;;;5052613;28;46342;-75
2022/09/24 08:03:43;;;;;;;;;;;;;;;;;;5066174;28;44653;-75
2022/09/24 08:06:10;;;;;;;;;;;;;;;;;;5046866;28;47216;-76
2022/09/24 08:08:37;;;;;;;;;;;;;;;;;;5044028;28;44780;-76
2022/09/24 08:11:04;;;;;;;;;;;;;;;;;;5047170;28;48074;-76
2022/09/24 08:13:33;;;;;;;;;;;;;;;;;;5048729;28;48604;-76
2022/09/24 08:16:02;;;;;;;;;;;;;;;;;;5066559;28;45225;-75
2022/09/24 08:18:32;;;;;;;;;;;;;;;;;;5045205;28;45632;-76
2022/09/24 08:21:02;;;;;;;;;;;;;;;;;;5045872;28;47543;-75
2022/09/24 08:23:31;;;;;;;;;;;;;;;;;;5046197;28;43637;-75
2022/09/24 08:26:02;;;;;;;;;;;;;;;;;;5050196;28;46930;-75
2022/09/24 08:28:52;;;;;;;;;;;;;;;;;;5065302;28;42783;-75
2022/09/24 08:31:21;;;;;;;;;;;;;;;;;;5053932;28;45043;-75
2022/09/24 08:33:49;;;;;;;;;;;;;;;;;;5044291;28;48365;-75
2022/09/24 08:36:17;;;;;;;;;;;;;;;;;;5058459;28;43912;-76
2022/09/24 08:38:43;;;;;;;;;;;;;;;;;;5039652;28;46405;-76
2022/09/24 08:41:09;;;;;;;;;;;;;;;;;;5043500;28;46762;-75
2022/09/24 08:43:35;;;;;;;;;;;;;;;;;;5065258;28;44859;-75
2022/09/24 08:48:48;;;;;;;;;;;;;;;;;;5062807;28;47643;-75
2022/09/24 08:51:16;;;;;;;;;;;;;;;;;;5065573;28;48079;-75
2022/09/24 08:53:42;;;;;;;;;;;;;;;;;;5047840;28;48156;-75
2022/09/24 08:56:08;;;;;;;;;;;;;;;;;;5063581;28;43169;-75
2022/09/24 08:58:35;;;;;;;;;;;;;;;;;;5065283;28;47920;-75
2022/09/24 09:01:05;;;;;;;;;;;;;;;;;;5066971;28;48361;-75
2022/09/24 09:03:32;;;;;;;;;;;;;;;;;;5066916;28;44698;-75
2022/09/24 09:05:58;;;;;;;;;;;;;;;;;;5064616;28;46535;-75
2022/09/24 09:08:24;;;;;;;;;;;;;;;;;;5066640;28;45756;-78
2022/09/24 09:11:11;;;;;;;;;;;;;;;;;;5047030;28;20412;-75
2022/09/24 09:13:37;;;;;;;;;;;;;;;;;;5055078;28;45777;-75
2022/09/24 09:16:03;;;;;;;;;;;;;;;;;;5065493;28;44803;-75
2022/09/24 09:18:30;;;;;;;;;;;;;;;;;;5047653;28;47714;-75
2022/09/24 09:20:59;;;;;;;;;;;;;;;;;;5063367;28;47167;-75
2022/09/24 09:23:25;;;;;;;;;;;;;;;;;;5047734;28;42748;-75
2022/09/24 09:25:52;;;;;;;;;;;;;;;;;;5044483;28;47566;-75
2022/09/24 09:28:18;;;;;;;;;;;;;;;;;;5060667;28;46929;-75
2022/09/24 09:30:44;;;;;;;;;;;;;;;;;;5065159;28;45018;-75
2022/09/24 09:33:11;;;;;;;;;;;;;;;;;;5064381;28;48572;-75
2022/09/24 09:35:38;;;;;;;;;;;;;;;;;;5066136;28;44692;-75
2022/09/24 09:38:04;;;;;;;;;;;;;;;;;;5066187;28;46383;-76
2022/09/24 09:40:30;;;;;;;;;;;;;;;;;;5045063;28;48485;-75
2022/09/24 09:42:57;;;;;;;;;;;;;;;;;;5044233;28;44842;-75
2022/09/24 09:45:24;;;;;;;;;;;;;;;;;;5066526;28;46336;-75
2022/09/24 09:47:53;;;;;;;;;;;;;;;;;;5047676;28;45840;-75
2022/09/24 09:50:19;;;;;;;;;;;;;;;;;;5062803;28;44612;-75
2022/09/24 09:52:46;;;;;;;;;;;;;;;;;;5046478;28;46504;-75
2022/09/24 09:55:12;;;;;;;;;;;;;;;;;;5046848;28;44400;-75
2022/09/24 09:57:38;;;;;;;;;;;;;;;;;;5045562;28;47650;-76
2022/09/24 10:00:05;;;;;;;;;;;;;;;;;;5059192;28;46835;-75
2022/09/24 10:02:32;;;;;;;;;;;;;;;;;;5030721;28;46259;-76
2022/09/24 10:04:59;;;;;;;;;;;;;;;;;;5062487;28;47102;-76
2022/09/24 10:07:25;;;;;;;;;;;;;;;;;;5037072;28;48593;-76
2022/09/24 10:09:51;;;;;;;;;;;;;;;;;;5045654;28;44735;-76
2022/09/24 10:12:20;;;;;;;;;;;;;;;;;;5047396;28;46582;-76
2022/09/24 10:14:46;;;;;;;;;;;;;;;;;;5043441;28;47207;-77
2022/09/24 10:17:13;;;;;;;;;;;;;;;;;;5061648;28;45227;-76
2022/09/24 10:19:39;;;;;;;;;;;;;;;;;;5063890;28;48292;-76
2022/09/24 10:22:05;;;;;;;;;;;;;;;;;;5044701;28;42442;-76
2022/09/24 10:24:32;;;;;;;;;;;;;;;;;;5063125;28;46539;-76
2022/09/24 10:26:59;;;;;;;;;;;;;;;;;;5061979;28;48480;-76
2022/09/24 10:32:10;;;;;;;;;;;;;;;;;;5060822;28;45449;-76
2022/09/24 10:34:36;;;;;;;;;;;;;;;;;;5042805;28;45154;-77
2022/09/24 10:37:03;;;;;;;;;;;;;;;;;;5051772;28;44547;-76
2022/09/24 10:39:35;;;;;;;;;;;;;;;;;;5043928;28;46833;-76
2022/09/24 10:42:01;;;;;;;;;;;;;;;;;;5046096;28;44396;-76
2022/09/24 10:44:28;;;;;;;;;;;;;;;;;;5069302;28;46720;-77
2022/09/24 10:46:54;;;;;;;;;;;;;;;;;;5068798;28;48479;-76
2022/09/24 10:49:21;;;;;;;;;;;;;;;;;;5040678;28;44792;-76
2022/09/24 10:51:47;;;;;;;;;;;;;;;;;;5059611;28;44745;-76
2022/09/24 10:54:13;;;;;;;;;;;;;;;;;;5049780;28;48115;-77
2022/09/24 10:56:40;;;;;;;;;;;;;;;;;;5053624;28;44603;-76
2022/09/24 10:59:12;;;;;;;;;;;;;;;;;;5055212;28;45350;-76
2022/09/24 11:01:38;;;;;;;;;;;;;;;;;;5053143;28;45675;-76
2022/09/24 11:04:05;;;;;;;;;;;;;;;;;;5069720;28;45178;-76
2022/09/24 11:06:31;;;;;;;;;;;;;;;;;;5050323;28;48445;-76
2022/09/24 11:08:57;;;;;;;;;;;;;;;;;;5048028;28;44521;-76
2022/09/24 11:11:24;;;;;;;;;;;;;;;;;;5054667;28;46041;-77
2022/09/24 11:13:50;;;;;;;;;;;;;;;;;;5065562;28;46317;-77
2022/09/24 11:16:18;;;;;;;;;;;;;;;;;;5063933;28;34125;-76
2022/09/24 11:18:45;;;;;;;;;;;;;;;;;;5067546;28;46826;-77
2022/09/24 11:21:11;;;;;;;;;;;;;;;;;;5051467;28;44813;-76
2022/09/24 11:23:38;;;;;;;;;;;;;;;;;;5069410;28;46182;-76
2022/09/24 11:26:06;;;;;;;;;;;;;;;;;;5047442;28;46837;-76
2022/09/24 11:28:32;;;;;;;;;;;;;;;;;;5046021;28;43228;-77
2022/09/24 11:30:59;;;;;;;;;;;;;;;;;;5046497;28;45071;-76
2022/09/24 11:33:25;;;;;;;;;;;;;;;;;;5046648;28;48095;-76
2022/09/24 11:35:51;;;;;;;;;;;;;;;;;;5030014;28;42386;-76
2022/09/24 11:38:18;;;;;;;;;;;;;;;;;;5046275;28;47719;-78
2022/09/24 11:40:45;;;;;;;;;;;;;;;;;;5058950;28;46019;-77
2022/09/24 11:43:11;;;;;;;;;;;;;;;;;;5062635;28;44938;-77
2022/09/24 11:45:38;;;;;;;;;;;;;;;;;;5068000;28;46796;-77
2022/09/24 11:48:04;;;;;;;;;;;;;;;;;;5050121;28;41937;-77
2022/09/24 11:50:30;;;;;;;;;;;;;;;;;;5050439;28;46155;-76
2022/09/24 11:52:57;;;;;;;;;;;;;;;;;;5050043;28;45923;-77
2022/09/24 11:55:24;;;;;;;;;;;;;;;;;;5050324;28;45971;-76
2022/09/24 11:57:50;;;;;;;;;;;;;;;;;;5049724;28;47524;-77
2022/09/24 12:00:17;;;;;;;;;;;;;;;;;;5057876;28;45522;-76
2022/09/24 12:02:43;;;;;;;;;;;;;;;;;;5064428;28;42549;-77
2022/09/24 12:05:10;;;;;;;;;;;;;;;;;;5066270;28;46044;-77
2022/09/24 12:07:36;;;;;;;;;;;;;;;;;;5064694;28;45794;-77
2022/09/24 12:10:02;;;;;;;;;;;;;;;;;;5050388;28;46370;-76
2022/09/24 12:12:29;;;;;;;;;;;;;;;;;;5049022;28;46779;-76
2022/09/24 12:14:55;;;;;;;;;;;;;;;;;;5066571;28;44786;-77
2022/09/24 12:17:22;;;;;;;;;;;;;;;;;;5051545;28;46205;-77
2022/09/24 12:19:49;;;;;;;;;;;;;;;;;;5039636;28;46373;-77
2022/09/24 12:22:15;;;;;;;;;;;;;;;;;;5043553;28;43097;-77
2022/09/24 12:24:41;;;;;;;;;;;;;;;;;;5050168;28;47683;-77
2022/09/24 12:27:08;;;;;;;;;;;;;;;;;;5079850;28;44734;-77
2022/09/24 12:35:04;;;;;;;;;;;;;;;;;;5066060;28;43314;-78
2022/09/24 12:37:30;;;;;;;;;;;;;;;;;;5068152;28;47701;-78
2022/09/24 12:39:57;;;;;;;;;;;;;;;;;;5067541;28;47062;-78
2022/09/24 12:42:23;;;;;;;;;;;;;;;;;;5049676;28;41845;-78
2022/09/24 12:44:49;;;;;;;;;;;;;;;;;;5032505;28;46483;-78
2022/09/24 12:47:15;;;;;;;;;;;;;;;;;;5062852;28;45547;-78
2022/09/24 12:49:42;;;;;;;;;;;;;;;;;;5050685;28;47624;-78
2022/09/24 12:52:10;;;;;;;;;;;;;;;;;;5050934;28;47203;-78
2022/09/24 12:54:37;;;;;;;;;;;;;;;;;;5069471;28;43304;-78
2022/09/24 12:57:03;;;;;;;;;;;;;;;;;;5054974;28;46268;-79
2022/09/24 12:59:29;;;;;;;;;;;;;;;;;;5056589;28;44648;-78
2022/09/24 13:01:55;;;;;;;;;;;;;;;;;;5075568;28;44704;-78
2022/09/24 13:04:23;;;;;;;;;;;;;;;;;;5058142;28;46711;-79
2022/09/24 13:06:49;;;;;;;;;;;;;;;;;;5053345;28;47034;-78
2022/09/24 13:09:17;;;;;;;;;;;;;;;;;;5071580;28;41315;-79
2022/09/24 13:11:49;;;;;;;;;;;;;;;;;;5055816;28;48422;-79
2022/09/24 13:14:16;;;;;;;;;;;;;;;;;;5055781;28;45727;-79
2022/09/24 13:16:42;;;;;;;;;;;;;;;;;;5057649;28;45363;-79
2022/09/24 13:19:08;;;;;;;;;;;;;;;;;;5060495;28;48448;-79
2022/09/24 13:21:34;;;;;;;;;;;;;;;;;;5060107;28;43196;-79
2022/09/24 13:24:01;;;;;;;;;;;;;;;;;;5056080;28;44870;-79
2022/09/24 13:26:27;;;;;;;;;;;;;;;;;;5052159;28;45695;-79
2022/09/24 13:28:57;;;;;;;;;;;;;;;;;;5056363;28;45787;-79
2022/09/24 13:31:23;;;;;;;;;;;;;;;;;;5059445;28;47165;-79
2022/09/24 13:33:50;;;;;;;;;;;;;;;;;;5068783;28;45144;-79
2022/09/24 13:36:16;;;;;;;;;;;;;;;;;;5058760;28;46817;-79
2022/09/24 13:38:42;;;;;;;;;;;;;;;;;;5060529;28;47073;-79
2022/09/24 13:41:08;;;;;;;;;;;;;;;;;;5055123;28;43696;-79
2022/09/24 13:43:35;;;;;;;;;;;;;;;;;;5069675;28;46515;-79
2022/09/24 13:46:01;;;;;;;;;;;;;;;;;;5078623;28;47197;-80
2022/09/24 13:48:28;;;;;;;;;;;;;;;;;;5058673;28;43923;-79
2022/09/24 13:50:54;;;;;;;;;;;;;;;;;;5056737;28;46494;-79
2022/09/24 13:53:23;;;;;;;;;;;;;;;;;;5066064;28;43508;-78
2022/09/24 13:55:49;;;;;;;;;;;;;;;;;;5068153;28;46507;-80
2022/09/24 13:58:15;;;;;;;;;;;;;;;;;;5048124;28;46028;-81
2022/09/24 14:00:42;;;;;;;;;;;;;;;;;;5057708;28;43415;-82
2022/09/24 14:03:08;;;;;;;;;;;;;;;;;;5069346;28;46466;-81
2022/09/24 14:05:35;;;;;;;;;;;;;;;;;;5054491;28;47283;-84
2022/09/24 14:08:02;;;;;;;;;;;;;;;;;;5049857;28;43201;-83
2022/09/24 14:10:28;;;;;;;;;;;;;;;;;;5065798;28;44896;-84
2022/09/24 14:12:54;;;;;;;;;;;;;;;;;;5066660;28;47380;-83
2022/09/24 14:15:21;;;;;;;;;;;;;;;;;;5065131;28;46508;-81
2022/09/24 15:59:24;;;;;;;12.57;3.30;;;;;;;;;;6213640;22;1362257;-79
2022/09/24 16:01:53;;;;;;;10.25;2.90;;;;;;;;;;6192723;23;20093;-79
2022/09/24 16:04:20;;;;;;;11.10;2.78;;;;;;;;;;6181422;23;20600;-79
2022/09/24 16:06:46;;;;;;;9.00;2.50;;;;;;;;;;6158851;23;20029;-79
2022/09/24 16:09:13;;;;;;;10.68;2.55;;;;;;;;;;6161319;23;20050;-79
2022/09/24 16:11:39;;;;;;;6.03;2.20;;;;;;;;;;6157603;23;20085;-79
2022/09/24 16:14:06;;;;;;;11.27;3.38;;;;;;;;;;6132503;23;20022;-79
2022/09/24 16:16:32;;;;;;;7.10;2.30;;;;;;;;;;6130493;23;20921;-80
2022/09/24 16:18:59;;;;;;;9.25;2.88;;;;;;;;;;6132290;23;20030;-79
2022/09/24 16:21:25;;;;;;;7.32;3.00;;;;;;;;;;6131673;23;20141;-79
2022/09/24 16:23:53;;;;;;;14.13;3.08;;;;;;;;;;6131440;23;20053;-79
2022/09/24 16:26:19;;;;;;;10.73;3.10;;;;;;;;;;6125736;23;21383;-80
2022/09/24 16:28:46;;;;;;;9.55;3.25;;;;;;;;;;6136879;23;20029;-81
2022/09/24 16:31:12;;;;;;;13.45;4.43;;;;;;;;;;6135675;23;20026;-78
2022/09/24 16:33:39;;;;;;;13.05;3.33;;;;;;;;;;6135295;23;20022;-83
2022/09/24 16:36:06;;;;;;;11.98;3.50;;;;;;;;;;6132128;23;20053;-80
2022/09/24 16:38:36;;;;;;;11.30;3.50;;;;;;;;;;6154915;23;20066;-80
2022/09/24 16:41:03;;;;;;;12.32;3.78;;;;;;;;;;6155496;23;20285;-79
2022/09/24 16:43:30;;;;;;;15.65;4.22;;;;;;;;;;6134814;23;20026;-83
2022/09/24 16:46:02;;;;;;;11.88;4.22;;;;;;;;;;6135947;23;20742;-80
2022/09/24 16:48:29;;;;;;;9.57;3.97;;;;;;;;;;6160315;23;20074;-82
2022/09/24 16:51:02;;;;;;;12.23;3.53;;;;;;;;;;6133248;23;20026;-82
2022/09/24 16:53:29;;;;;;;11.65;3.75;;;;;;;;;;6135450;23;20022;-83
2022/09/24 16:56:12;;;;;;;10.38;3.65;;;;;;;;;;6135836;23;20475;-82
2022/09/24 16:58:42;;;;;;;8.07;3.38;;;;;;;;;;6138007;23;20044;-82
2022/09/24 17:01:23;;;;;;;11.32;4.47;;;;;;;;;;6130303;23;20070;-83
2022/09/24 17:03:51;;;;;;;13.38;4.38;;;;;;;;;;6133643;23;20074;-82
2022/09/24 17:06:20;;;;;;;11.45;4.35;;;;;;;;;;6156336;23;20034;-84
2022/09/24 17:11:53;;;;;;;15.18;4.82;;;;;;;;;;6135014;23;20030;-84
2022/09/24 17:14:27;;;;;;;14.40;5.10;;;;;;;;;;6130857;23;20014;-81
2022/09/24 17:16:56;;;;;;;10.20;4.45;;;;;;;;;;6159119;23;20025;-83
2022/09/24 17:19:37;;;;;;;10.77;4.57;;;;;;;;;;6134798;23;20021;-83
2022/09/24 17:22:17;;;;;;;9.45;4.70;;;;;;;;;;6130818;23;20022;-80
2022/09/24 17:25:04;;;;;;;11.68;4.88;;;;;;;;;;6133697;23;20018;-82
2022/09/24 17:27:34;;;;;;;12.80;4.35;;;;;;;;;;6134003;23;20074;-80
2022/09/24 17:30:17;;;;;;;11.57;4.20;;;;;;;;;;6136455;23;20033;-84
2022/09/24 17:33:26;;;;;;;11.73;4.60;;;;;;;;;;6102618;23;20097;-81
2022/09/24 17:39:42;;;;;;;10.20;4.00;;;;;;;;;;6108406;23;20011;-81
2022/09/24 17:42:15;;;;;;;10.95;4.10;;;;;;;;;;6133702;23;20034;-82
2022/09/24 17:45:10;;;;;;;16.63;4.28;;;;;;;;;;6131132;23;20033;-80
2022/09/24 17:48:09;;;;;;;10.55;3.80;;;;;;;;;;6141718;23;20033;-81
2022/09/24 17:51:01;;;;;;;9.70;4.00;;;;;;;;;;6129182;23;20027;-82
2022/09/24 17:53:33;;;;;;;10.55;4.22;;;;;;;;;;6076748;23;20026;-80
2022/09/24 17:56:00;;;;;;;20.77;4.85;;;;;;;;;;6116790;23;20061;-80
2022/09/24 17:58:26;;;;;;;13.35;5.10;;;;;;;;;;6119777;23;20053;-80
2022/09/24 18:00:53;;;;;;;13.70;5.22;;;;;;;;;;6142250;23;20029;-81
2022/09/24 18:03:20;;;;;;;12.50;5.65;;;;;;;;;;6125193;23;20466;-81
2022/09/24 18:05:46;;;;;;;10.57;5.15;;;;;;;;;;6151860;23;20034;-81
2022/09/24 18:08:13;;;;;;;11.40;6.18;;;;;;;;;;6124700;23;20026;-81
2022/09/24 18:10:45;;;;;;;13.10;5.70;;;;;;;;;;6149979;23;20474;-81
2022/09/24 18:13:13;;;;;;;14.68;6.22;;;;;;;;;;6149761;23;20034;-81
2022/09/24 18:15:41;;;;;;;19.38;7.88;;;;;;;;;;6150001;23;20056;-81
2022/09/24 18:18:07;;;;;;;15.60;7.85;;;;;;;;;;6149878;23;20025;-81
2022/09/24 18:20:36;;;;;;;16.67;8.10;;;;;;;;;;6125229;23;20454;-80
2022/09/24 18:23:02;;;;;;;18.65;8.15;;;;;;;;;;6125895;23;20029;-80
2022/09/24 18:25:32;;;;;;;15.35;6.05;;;;;;;;;;6124146;23;20065;-81
2022/09/24 18:28:00;;;;;;;13.30;5.07;;;;;;;;;;6124658;23;20113;-81
2022/09/24 18:30:26;;;;;;;12.60;4.63;;;;;;;;;;6123572;23;20116;-81